ESOK

Karlstad Airport

Karlstad, Sweden
METAR ESOK 191950Z 22014KT CAVOK 15/06 Q1008
Observed Flight Rules
Jun-19 @ 19:50 UTC (26 minutes ago) Visual Flight Rules
Wind Visibility Clouds
220° at 14 knots 10,000+ meters
  • Clear skies
Temperatures Readings
Current 15°C / 59°F
Dewpoint 6°C / 43°F
Humidity 55%
Altimeter 29.76" Hg
Pressure 1008 hPa
Elevation 107
METAR ESOK 191950Z 22014KT CAVOK 15/06 Q1008
Observed Flight Rules
Jun-19 @ 19:50 UTC
(26 minutes ago)
VFR
Wind Visibility
220° at 14 knots 10,000+ meters
Clouds
  • Clear skies
Temperature Dewpoint
15°C / 59°F 6°C / 43°F
Humidity Altimeter Pressure
55% 29.76" Hg 1008 hPa